createdAt,value
2022-08-21T00:01:42.104Z,17.24
2022-08-21T00:04:09.909Z,17.24
2022-08-21T00:06:37.643Z,17.24
2022-08-21T00:09:06.714Z,17.23
2022-08-21T00:11:34.569Z,17.21
2022-08-21T00:14:02.298Z,17.19
2022-08-21T00:16:29.960Z,17.16
2022-08-21T00:18:58.008Z,17.13
2022-08-21T00:21:26.305Z,17.10
2022-08-21T00:23:53.983Z,17.09
2022-08-21T00:26:21.589Z,17.07
2022-08-21T00:28:50.168Z,17.04
2022-08-21T00:31:17.901Z,17.01
2022-08-21T00:33:45.522Z,16.99
2022-08-21T00:36:13.230Z,16.96
2022-08-21T00:38:40.881Z,16.96
2022-08-21T00:41:37.152Z,16.94
2022-08-21T00:43:56.926Z,16.93
2022-08-21T00:46:24.833Z,16.93
2022-08-21T00:48:58.913Z,16.93
2022-08-21T00:51:26.902Z,16.95
2022-08-21T00:53:55.121Z,16.96
2022-08-21T00:56:22.841Z,16.96
2022-08-21T00:58:54.948Z,16.95
2022-08-21T01:01:22.781Z,16.93
2022-08-21T01:03:50.543Z,16.89
2022-08-21T01:06:18.937Z,16.87
2022-08-21T01:08:47.242Z,16.83
2022-08-21T01:11:14.869Z,16.74
2022-08-21T01:13:47.233Z,16.65
2022-08-21T01:16:14.843Z,16.57
2022-08-21T01:18:42.810Z,16.49
2022-08-21T01:21:12.597Z,16.42
2022-08-21T01:23:41.260Z,16.39
2022-08-21T01:26:08.916Z,16.38
2022-08-21T01:28:36.574Z,16.34
2022-08-21T01:31:04.198Z,16.32
2022-08-21T01:33:31.879Z,16.33
2022-08-21T01:35:59.525Z,16.34
2022-08-21T01:38:27.485Z,16.39
2022-08-21T01:40:57.592Z,16.46
2022-08-21T01:43:30.714Z,16.54
2022-08-21T01:46:07.042Z,16.61
2022-08-21T01:48:35.027Z,16.67
2022-08-21T01:51:02.694Z,16.70
2022-08-21T01:53:33.527Z,16.74
2022-08-21T01:56:01.408Z,16.77
2022-08-21T01:58:29.573Z,16.84
2022-08-21T02:00:57.304Z,16.88
2022-08-21T02:03:32.720Z,16.93
2022-08-21T02:06:03.573Z,16.98
2022-08-21T02:08:31.317Z,17.01
2022-08-21T02:10:59.270Z,17.04
2022-08-21T02:13:27.417Z,17.08
2022-08-21T02:15:55.010Z,17.12
2022-08-21T02:18:22.696Z,17.15
2022-08-21T02:20:55.638Z,17.18
2022-08-21T02:23:27.099Z,17.19
2022-08-21T02:25:55.244Z,17.19
2022-08-21T02:28:22.885Z,17.21
2022-08-21T02:30:50.605Z,17.24
2022-08-21T02:33:18.502Z,17.25
2022-08-21T02:35:46.191Z,17.21
2022-08-21T02:38:13.802Z,17.17
2022-08-21T02:40:43.764Z,17.15
2022-08-21T02:43:16.237Z,17.11
2022-08-21T02:45:44.117Z,17.09
2022-08-21T02:48:11.758Z,17.09
2022-08-21T02:50:39.752Z,17.09
2022-08-21T02:53:07.673Z,17.09
2022-08-21T02:55:36.121Z,17.09
2022-08-21T02:58:03.768Z,17.10
2022-08-21T03:00:31.826Z,17.10
2022-08-21T03:02:59.653Z,17.10
2022-08-21T03:05:27.408Z,17.09
2022-08-21T03:07:55.141Z,17.05
2022-08-21T03:10:23.237Z,17.01
2022-08-21T03:12:50.969Z,16.95
2022-08-21T03:15:18.967Z,16.89
2022-08-21T03:17:46.642Z,16.83
2022-08-21T03:20:15.238Z,16.79
2022-08-21T03:22:45.723Z,16.71
2022-08-21T03:25:30.864Z,16.65
2022-08-21T03:28:08.873Z,16.59
2022-08-21T03:30:40.684Z,16.53
2022-08-21T03:33:08.441Z,16.46
2022-08-21T03:35:36.119Z,16.41
2022-08-21T03:38:04.258Z,16.33
2022-08-21T03:40:32.716Z,16.26
2022-08-21T03:43:00.473Z,16.19
2022-08-21T03:45:28.677Z,16.13
2022-08-21T03:47:56.939Z,16.08
2022-08-21T03:50:24.926Z,16.02
2022-08-21T03:52:52.615Z,15.96
2022-08-21T03:55:20.205Z,15.89
2022-08-21T03:57:48.020Z,15.83
2022-08-21T04:00:16.224Z,15.77
2022-08-21T04:02:43.934Z,15.74
2022-08-21T04:05:11.702Z,15.69
2022-08-21T04:07:39.411Z,15.64
2022-08-21T04:10:07.517Z,15.59
2022-08-21T04:12:35.179Z,15.55
2022-08-21T04:15:03.202Z,15.53
2022-08-21T04:17:31.159Z,15.49
2022-08-21T04:20:00.110Z,15.48
2022-08-21T04:22:27.999Z,15.44
2022-08-21T04:24:55.705Z,15.43
2022-08-21T04:27:23.299Z,15.39
2022-08-21T04:29:50.984Z,15.40
2022-08-21T04:32:19.259Z,15.38
2022-08-21T04:34:46.911Z,15.37
2022-08-21T04:37:16.491Z,15.36
2022-08-21T04:39:46.904Z,15.36
2022-08-21T04:42:17.061Z,15.36
2022-08-21T04:44:44.653Z,15.34
2022-08-21T04:47:12.261Z,15.34
2022-08-21T04:49:39.948Z,15.36
2022-08-21T04:52:07.591Z,15.35
2022-08-21T04:54:35.671Z,15.37
2022-08-21T04:57:04.508Z,15.38
2022-08-21T04:59:32.165Z,15.41
2022-08-21T05:01:59.866Z,15.43
2022-08-21T05:04:27.568Z,15.46
2022-08-21T05:06:55.311Z,15.49
2022-08-21T05:09:23.423Z,15.54
2022-08-21T05:11:52.626Z,15.58
2022-08-21T05:14:20.508Z,15.64
2022-08-21T05:16:48.275Z,15.71
2022-08-21T05:19:16.375Z,15.81
2022-08-21T05:21:44.434Z,15.90
2022-08-21T05:24:12.572Z,15.93
2022-08-21T05:26:45.478Z,16.01
2022-08-21T05:29:14.270Z,16.11
2022-08-21T05:31:43.065Z,16.24
2022-08-21T05:34:10.636Z,16.36
2022-08-21T05:36:38.275Z,16.44
2022-08-21T05:39:06.261Z,16.49
2022-08-21T05:41:34.385Z,16.54
2022-08-21T05:44:02.143Z,16.63
2022-08-21T05:46:29.848Z,16.71
2022-08-21T05:48:57.893Z,16.82
2022-08-21T05:51:25.560Z,16.94
2022-08-21T05:53:53.183Z,17.05
2022-08-21T05:56:20.788Z,17.12
2022-08-21T05:58:48.845Z,17.20
2022-08-21T06:01:16.948Z,17.27
2022-08-21T06:03:44.737Z,17.34
2022-08-21T06:06:12.391Z,17.44
2022-08-21T06:08:40.508Z,17.55
2022-08-21T06:11:08.200Z,17.65
2022-08-21T06:13:35.785Z,17.73
2022-08-21T06:16:03.535Z,17.83
2022-08-21T06:18:31.455Z,17.93
2022-08-21T06:20:59.209Z,18.01
2022-08-21T06:23:32.927Z,18.11
2022-08-21T06:26:01.161Z,18.22
2022-08-21T06:28:30.195Z,18.31
2022-08-21T06:30:57.909Z,18.39
2022-08-21T06:33:30.492Z,18.49
2022-08-21T06:36:01.004Z,18.66
2022-08-21T06:38:28.729Z,18.79
2022-08-21T06:40:57.072Z,18.91
2022-08-21T06:43:39.161Z,19.06
2022-08-21T06:46:08.205Z,19.23
2022-08-21T06:48:36.278Z,19.38
2022-08-21T06:51:03.986Z,19.50
2022-08-21T06:53:31.656Z,19.61
2022-08-21T06:55:59.279Z,19.72
2022-08-21T06:58:27.296Z,19.86
2022-08-21T07:01:00.101Z,19.99
2022-08-21T07:03:28.660Z,20.11
2022-08-21T07:05:56.259Z,20.25
2022-08-21T07:08:23.902Z,20.36
2022-08-21T07:10:51.984Z,20.55
2022-08-21T07:13:19.748Z,20.73
2022-08-21T07:15:47.352Z,20.88
2022-08-21T07:18:15.465Z,21.03
2022-08-21T07:20:43.746Z,21.18
2022-08-21T07:23:11.385Z,21.33
2022-08-21T07:25:39.108Z,21.45
2022-08-21T07:28:06.782Z,21.54
2022-08-21T07:30:34.858Z,21.60
2022-08-21T07:33:02.517Z,21.69
2022-08-21T07:35:32.267Z,21.72
2022-08-21T07:38:00.006Z,21.67
2022-08-21T07:40:27.634Z,21.64
2022-08-21T07:42:55.798Z,21.62
2022-08-21T07:45:25.368Z,21.62
2022-08-21T07:47:57.270Z,21.67
2022-08-21T07:50:25.365Z,21.74
2022-08-21T07:52:53.543Z,21.83
2022-08-21T07:55:21.212Z,22.00
2022-08-21T07:57:49.452Z,22.11
2022-08-21T08:00:17.134Z,22.23
2022-08-21T08:02:44.765Z,22.34
2022-08-21T08:05:13.127Z,22.47
2022-08-21T08:07:40.822Z,22.50
2022-08-21T08:10:09.158Z,22.54
2022-08-21T08:12:36.814Z,22.57
2022-08-21T08:15:04.679Z,22.67
2022-08-21T08:17:33.332Z,22.70
2022-08-21T08:20:02.276Z,22.74
2022-08-21T08:22:29.930Z,22.79
2022-08-21T08:24:58.019Z,22.87
2022-08-21T08:27:25.698Z,22.92
2022-08-21T08:29:54.230Z,23.00
2022-08-21T08:32:22.079Z,23.05
2022-08-21T08:34:49.876Z,23.14
2022-08-21T08:37:17.531Z,23.22
2022-08-21T08:39:46.000Z,23.22
2022-08-21T08:42:33.524Z,23.32
2022-08-21T08:45:02.245Z,23.51
2022-08-21T08:47:31.997Z,23.63
2022-08-21T08:49:59.604Z,23.58
2022-08-21T08:52:27.588Z,23.47
2022-08-21T08:54:55.229Z,23.41
2022-08-21T08:57:23.245Z,23.39
2022-08-21T08:59:50.960Z,23.39
2022-08-21T09:02:22.088Z,23.39
2022-08-21T09:04:49.863Z,23.43
2022-08-21T09:07:17.551Z,23.43
2022-08-21T09:09:46.157Z,23.51
2022-08-21T09:12:13.785Z,23.53
2022-08-21T09:14:42.250Z,23.62
2022-08-21T09:17:09.923Z,23.71
2022-08-21T09:19:38.136Z,23.70
2022-08-21T09:22:05.842Z,23.82
2022-08-21T09:24:33.753Z,23.95
2022-08-21T09:27:01.455Z,24.12
2022-08-21T09:29:30.886Z,24.32
2022-08-21T09:31:58.619Z,24.31
2022-08-21T09:34:26.392Z,24.28
2022-08-21T09:36:54.073Z,24.19
2022-08-21T09:39:22.103Z,24.33
2022-08-21T09:41:50.503Z,24.61
2022-08-21T09:44:18.260Z,24.85
2022-08-21T09:46:46.392Z,25.28
2022-08-21T09:49:16.542Z,25.64
2022-08-21T09:51:44.239Z,25.95
2022-08-21T09:54:12.006Z,26.19
2022-08-21T09:56:57.247Z,26.61
2022-08-21T09:59:25.517Z,27.21
2022-08-21T10:01:53.187Z,27.87
2022-08-21T10:04:20.892Z,28.46
2022-08-21T10:06:48.788Z,28.89
2022-08-21T10:09:21.107Z,29.29
2022-08-21T10:11:49.137Z,29.72
2022-08-21T10:14:16.782Z,30.08
2022-08-21T10:16:44.857Z,30.18
2022-08-21T10:19:12.549Z,30.29
2022-08-21T10:21:40.236Z,30.12
2022-08-21T10:24:07.901Z,29.95
2022-08-21T10:26:39.186Z,30.10
2022-08-21T10:29:06.888Z,30.31
2022-08-21T10:31:34.591Z,30.58
2022-08-21T10:34:02.347Z,30.82
2022-08-21T10:36:32.210Z,30.96
2022-08-21T10:39:25.239Z,31.35
2022-08-21T10:41:48.049Z,31.76
2022-08-21T10:44:15.659Z,32.14
2022-08-21T10:46:43.720Z,32.57
2022-08-21T10:49:11.387Z,32.72
2022-08-21T10:51:39.021Z,33.04
2022-08-21T10:54:06.718Z,33.35
2022-08-21T10:56:34.924Z,33.66
2022-08-21T10:59:02.547Z,33.53
2022-08-21T11:01:30.450Z,33.63
2022-08-21T11:03:58.138Z,33.97
2022-08-21T11:06:28.239Z,34.27
2022-08-21T11:08:57.848Z,34.38
2022-08-21T11:11:25.454Z,34.74
2022-08-21T11:13:57.489Z,34.92
2022-08-21T11:16:25.278Z,35.18
2022-08-21T11:18:52.979Z,35.57
2022-08-21T11:21:20.727Z,36.01
2022-08-21T11:23:48.445Z,36.03
2022-08-21T11:26:16.908Z,36.22
2022-08-21T11:28:44.775Z,36.56
2022-08-21T11:31:13.550Z,36.65
2022-08-21T11:33:42.841Z,36.77
2022-08-21T11:36:10.508Z,37.10
2022-08-21T11:38:39.917Z,37.30
2022-08-21T11:41:08.216Z,37.31
2022-08-21T11:43:35.927Z,37.16
2022-08-21T11:46:03.647Z,36.84
2022-08-21T11:48:31.340Z,36.63
2022-08-21T11:50:59.347Z,36.70
2022-08-21T11:53:27.104Z,36.71
2022-08-21T11:55:55.354Z,36.71
2022-08-21T11:58:23.078Z,36.76
2022-08-21T12:00:51.264Z,36.72
2022-08-21T12:03:18.933Z,36.49
2022-08-21T12:05:46.616Z,36.35
2022-08-21T12:08:14.238Z,35.86
2022-08-21T12:10:42.401Z,35.17
2022-08-21T12:13:11.167Z,34.69
2022-08-21T12:15:38.787Z,34.40
2022-08-21T12:18:06.609Z,34.16
2022-08-21T12:20:34.415Z,34.30
2022-08-21T12:23:02.484Z,34.47
2022-08-21T12:25:30.257Z,34.23
2022-08-21T12:27:57.938Z,34.30
2022-08-21T12:30:27.486Z,34.42
2022-08-21T12:32:55.299Z,34.24
2022-08-21T12:35:25.020Z,33.79
2022-08-21T12:37:53.315Z,33.33
2022-08-21T12:40:21.535Z,32.89
2022-08-21T12:43:00.589Z,32.42
2022-08-21T12:45:28.447Z,31.82
2022-08-21T12:47:56.161Z,31.56
2022-08-21T12:50:24.144Z,31.55
2022-08-21T12:52:52.217Z,31.67
2022-08-21T12:55:22.314Z,31.64
2022-08-21T12:57:50.018Z,31.63
2022-08-21T13:00:19.374Z,31.64
2022-08-21T13:02:48.938Z,31.76
2022-08-21T13:05:17.222Z,31.76
2022-08-21T13:07:44.950Z,31.59
2022-08-21T13:10:13.290Z,31.52
2022-08-21T13:12:41.042Z,31.40
2022-08-21T13:15:09.435Z,31.36
2022-08-21T13:17:38.655Z,31.32
2022-08-21T13:20:07.248Z,31.30
2022-08-21T13:22:38.051Z,31.12
2022-08-21T13:25:06.913Z,31.01
2022-08-21T13:27:35.362Z,31.04
2022-08-21T13:30:03.615Z,31.03
2022-08-21T13:32:31.340Z,30.74
2022-08-21T13:34:59.053Z,30.67
2022-08-21T13:37:27.216Z,30.67
2022-08-21T13:39:54.891Z,30.74
2022-08-21T13:42:25.203Z,30.84
2022-08-21T13:44:52.891Z,31.05
2022-08-21T13:47:22.013Z,31.22
2022-08-21T13:49:49.668Z,31.29
2022-08-21T13:52:17.446Z,31.30
2022-08-21T13:54:45.838Z,31.17
2022-08-21T13:57:14.120Z,30.91
2022-08-21T13:59:41.810Z,30.62
2022-08-21T14:02:09.589Z,30.26
2022-08-21T14:04:37.255Z,30.11
2022-08-21T14:07:04.974Z,30.27
2022-08-21T14:09:33.074Z,30.52
2022-08-21T14:12:00.750Z,30.80
2022-08-21T14:14:28.475Z,31.02
2022-08-21T14:16:56.482Z,31.28
2022-08-21T14:19:24.193Z,31.38
2022-08-21T14:21:52.097Z,31.36
2022-08-21T14:24:19.975Z,31.49
2022-08-21T14:26:48.243Z,31.60
2022-08-21T14:29:16.015Z,31.65
2022-08-21T14:31:44.247Z,31.63
2022-08-21T14:34:19.163Z,31.66
2022-08-21T14:36:48.064Z,31.46
2022-08-21T14:39:17.429Z,31.19
2022-08-21T14:41:47.146Z,31.42
2022-08-21T14:44:14.830Z,31.72
2022-08-21T14:46:56.023Z,31.81
2022-08-21T14:49:24.964Z,31.69
2022-08-21T14:51:58.094Z,31.47
2022-08-21T14:54:30.543Z,31.41
2022-08-21T14:57:00.016Z,31.78
2022-08-21T14:59:28.113Z,31.93
2022-08-21T15:01:57.329Z,31.99
2022-08-21T15:04:25.333Z,32.11
2022-08-21T15:06:52.969Z,32.15
2022-08-21T15:09:21.086Z,31.90
2022-08-21T15:11:48.738Z,31.35
2022-08-21T15:14:16.433Z,30.77
2022-08-21T15:16:44.448Z,30.17
2022-08-21T15:19:12.471Z,29.64
2022-08-21T15:21:40.211Z,29.19
2022-08-21T15:24:07.901Z,28.86
2022-08-21T15:26:35.940Z,28.58
2022-08-21T15:29:03.694Z,28.44
2022-08-21T15:31:34.486Z,28.33
2022-08-21T15:34:02.262Z,28.27
2022-08-21T15:36:30.231Z,28.20
2022-08-21T15:38:58.304Z,28.13
2022-08-21T15:41:26.028Z,28.09
2022-08-21T15:43:53.727Z,28.07
2022-08-21T15:46:21.817Z,28.04
2022-08-21T15:48:49.531Z,28.00
2022-08-21T15:51:17.299Z,28.04
2022-08-21T15:53:44.983Z,28.33
2022-08-21T15:56:12.905Z,28.60
2022-08-21T15:58:40.629Z,29.16
2022-08-21T16:01:08.373Z,30.33
2022-08-21T16:03:36.006Z,31.35
2022-08-21T16:06:03.699Z,32.57
2022-08-21T16:08:31.346Z,33.78
2022-08-21T16:10:59.376Z,34.27
2022-08-21T16:13:27.066Z,34.46
2022-08-21T16:15:54.792Z,34.78
2022-08-21T16:18:23.301Z,34.68
2022-08-21T16:20:51.471Z,34.05
2022-08-21T16:23:19.175Z,33.56
2022-08-21T16:25:46.941Z,32.76
2022-08-21T16:28:14.678Z,31.76
2022-08-21T16:30:42.722Z,30.92
2022-08-21T16:33:10.468Z,30.22
2022-08-21T16:35:38.165Z,29.63
2022-08-21T16:38:06.119Z,29.14
2022-08-21T16:40:34.402Z,28.77
2022-08-21T16:43:02.036Z,28.41
2022-08-21T16:45:33.027Z,28.10
2022-08-21T16:48:01.469Z,27.86
2022-08-21T16:50:29.532Z,27.69
2022-08-21T16:52:57.589Z,27.54
2022-08-21T16:55:25.391Z,27.39
2022-08-21T16:57:53.536Z,27.29
2022-08-21T17:00:21.248Z,27.17
2022-08-21T17:02:49.972Z,27.02
2022-08-21T17:05:17.624Z,26.86
2022-08-21T17:07:45.618Z,26.70
2022-08-21T17:10:13.512Z,26.55
2022-08-21T17:12:41.175Z,26.42
2022-08-21T17:15:10.485Z,26.31
2022-08-21T17:17:38.119Z,26.22
2022-08-21T17:20:06.008Z,26.11
2022-08-21T17:22:34.027Z,26.01
2022-08-21T17:25:01.700Z,25.90
2022-08-21T17:27:29.328Z,25.80
2022-08-21T17:29:57.548Z,25.68
2022-08-21T17:32:25.351Z,25.57
2022-08-21T17:34:53.113Z,25.46
2022-08-21T17:37:21.153Z,25.35
2022-08-21T17:39:49.355Z,25.26
2022-08-21T17:42:17.056Z,25.13
2022-08-21T17:44:44.777Z,25.04
2022-08-21T17:47:12.958Z,24.94
2022-08-21T17:49:40.978Z,24.85
2022-08-21T17:52:08.644Z,24.76
2022-08-21T17:54:36.792Z,24.66
2022-08-21T17:57:04.473Z,24.56
2022-08-21T17:59:32.556Z,24.47
2022-08-21T18:02:01.829Z,24.38
2022-08-21T18:04:29.824Z,24.29
2022-08-21T18:06:57.498Z,24.20
2022-08-21T18:09:28.311Z,24.12
2022-08-21T18:11:55.963Z,24.04
2022-08-21T18:14:23.728Z,23.96
2022-08-21T18:16:51.410Z,23.89
2022-08-21T18:19:21.530Z,23.78
2022-08-21T18:21:49.246Z,23.72
2022-08-21T18:24:17.832Z,23.64
2022-08-21T18:26:45.532Z,23.55
2022-08-21T18:29:13.290Z,23.44
2022-08-21T18:31:41.269Z,23.36
2022-08-21T18:34:09.026Z,23.28
2022-08-21T18:36:36.782Z,23.20
2022-08-21T18:39:34.422Z,23.15
2022-08-21T18:41:53.651Z,23.08
2022-08-21T18:44:21.705Z,23.01
2022-08-21T18:46:49.772Z,22.96
2022-08-21T18:49:17.513Z,22.90
2022-08-21T18:51:46.164Z,22.85
2022-08-21T18:54:14.949Z,22.79
2022-08-21T18:56:43.285Z,22.73
2022-08-21T18:59:11.095Z,22.66
2022-08-21T19:01:38.787Z,22.60
2022-08-21T19:04:08.952Z,22.54
2022-08-21T19:06:37.887Z,22.46
2022-08-21T19:09:06.176Z,22.38
2022-08-21T19:11:34.303Z,22.30
2022-08-21T19:14:01.965Z,22.22
2022-08-21T19:16:29.739Z,22.10
2022-08-21T19:18:58.169Z,21.99
2022-08-21T19:21:28.187Z,21.88
2022-08-21T19:23:56.933Z,21.79
2022-08-21T19:26:25.853Z,21.66
2022-08-21T19:28:53.970Z,21.56
2022-08-21T19:34:09.652Z,21.29
2022-08-21T19:36:37.538Z,21.18
2022-08-21T19:39:08.175Z,21.08
2022-08-21T19:41:36.160Z,21.01
2022-08-21T19:44:03.846Z,20.93
2022-08-21T19:46:31.486Z,20.83
2022-08-21T19:48:59.642Z,20.77
2022-08-21T19:51:27.598Z,20.72
2022-08-21T19:53:57.255Z,20.66
2022-08-21T19:56:25.067Z,20.56
2022-08-21T19:58:53.260Z,20.46
2022-08-21T20:01:20.903Z,20.35
2022-08-21T20:03:54.539Z,20.26
2022-08-21T20:06:36.422Z,20.16
2022-08-21T20:09:04.495Z,20.07
2022-08-21T20:11:36.113Z,20.00
2022-08-21T20:14:03.957Z,19.92
2022-08-21T20:16:31.697Z,19.83
2022-08-21T20:18:59.933Z,19.73
2022-08-21T20:21:27.932Z,19.67
2022-08-21T20:23:56.455Z,19.60
2022-08-21T20:26:24.149Z,19.53
2022-08-21T20:28:52.985Z,19.48
2022-08-21T20:31:22.783Z,19.43
2022-08-21T20:33:50.568Z,19.41
2022-08-21T20:36:18.339Z,19.39
2022-08-21T20:38:48.274Z,19.38
2022-08-21T20:41:34.131Z,19.35
2022-08-21T20:44:01.825Z,19.34
2022-08-21T20:46:33.195Z,19.33
2022-08-21T20:49:02.166Z,19.32
2022-08-21T20:51:29.889Z,19.31
2022-08-21T20:53:57.705Z,19.29
2022-08-21T20:56:26.070Z,19.26
2022-08-21T20:58:57.650Z,19.27
2022-08-21T21:01:26.024Z,19.26
2022-08-21T21:03:55.044Z,19.26
2022-08-21T21:06:23.744Z,19.21
2022-08-21T21:08:53.694Z,19.19
2022-08-21T21:11:21.483Z,19.16
2022-08-21T21:13:49.375Z,19.11
2022-08-21T21:16:17.173Z,19.09
2022-08-21T21:18:46.290Z,19.04
2022-08-21T21:21:13.987Z,18.99
2022-08-21T21:23:41.731Z,18.93
2022-08-21T21:26:14.416Z,18.88
2022-08-21T21:28:43.400Z,18.80
2022-08-21T21:31:11.147Z,18.73
2022-08-21T21:33:40.402Z,18.69
2022-08-21T21:36:08.039Z,18.70
2022-08-21T21:38:38.138Z,18.71
2022-08-21T21:41:19.622Z,18.72
2022-08-21T21:43:47.764Z,18.74
2022-08-21T21:46:16.373Z,18.77
2022-08-21T21:48:44.502Z,18.78
2022-08-21T21:51:12.863Z,18.79
2022-08-21T21:53:40.527Z,18.79
2022-08-21T21:56:08.418Z,18.79
2022-08-21T21:58:36.150Z,18.81
2022-08-21T22:01:03.844Z,18.79
2022-08-21T22:03:31.735Z,18.74
2022-08-21T22:06:01.682Z,18.67
2022-08-21T22:08:30.216Z,18.59
2022-08-21T22:10:58.818Z,18.52
2022-08-21T22:13:26.906Z,18.47
2022-08-21T22:15:54.692Z,18.45
2022-08-21T22:18:22.417Z,18.48
2022-08-21T22:20:51.116Z,18.50
2022-08-21T22:23:18.863Z,18.55
2022-08-21T22:25:46.497Z,18.60
2022-08-21T22:28:16.273Z,18.63
2022-08-21T22:30:46.256Z,18.67
2022-08-21T22:33:14.741Z,18.67
2022-08-21T22:35:42.493Z,18.68
2022-08-21T22:38:11.481Z,18.68
2022-08-21T22:40:39.585Z,18.68
2022-08-21T22:43:07.642Z,18.69
2022-08-21T22:45:35.421Z,18.68
2022-08-21T22:48:03.121Z,18.68
2022-08-21T22:50:31.125Z,18.70
2022-08-21T22:52:59.036Z,18.71
2022-08-21T22:55:26.847Z,18.69
2022-08-21T22:57:56.475Z,18.65
2022-08-21T23:00:25.491Z,18.61
2022-08-21T23:02:53.349Z,18.57
2022-08-21T23:05:24.882Z,18.53
2022-08-21T23:07:52.796Z,18.49
2022-08-21T23:10:22.466Z,18.46
2022-08-21T23:12:55.309Z,18.38
2022-08-21T23:15:22.930Z,18.31
2022-08-21T23:17:50.778Z,18.26
2022-08-21T23:20:18.946Z,18.23
2022-08-21T23:22:47.406Z,18.20
2022-08-21T23:25:15.189Z,18.19
2022-08-21T23:27:44.865Z,18.14
2022-08-21T23:30:12.947Z,18.10
2022-08-21T23:32:40.816Z,18.05
2022-08-21T23:35:14.693Z,18.00
2022-08-21T23:37:51.678Z,17.97
2022-08-21T23:40:19.994Z,17.95
2022-08-21T23:42:47.999Z,17.93
2022-08-21T23:45:17.791Z,17.90
2022-08-21T23:47:45.496Z,17.87
2022-08-21T23:50:19.754Z,17.83
2022-08-21T23:52:48.356Z,17.82
2022-08-21T23:55:16.108Z,17.81
2022-08-21T23:57:43.691Z,17.80
